createdAt,value
2018-12-12T00:00:32.696Z,995.95
2018-12-12T00:01:32.614Z,995.93
2018-12-12T00:02:32.529Z,995.93
2018-12-12T00:03:32.448Z,995.94
2018-12-12T00:04:32.372Z,995.92
2018-12-12T00:05:32.283Z,995.91
2018-12-12T00:06:32.205Z,995.90
2018-12-12T00:07:32.117Z,995.90
2018-12-12T00:08:32.035Z,995.95
2018-12-12T00:09:31.953Z,995.92
2018-12-12T00:10:31.871Z,995.96
2018-12-12T00:11:31.787Z,995.95
2018-12-12T00:12:31.706Z,995.95
2018-12-12T00:13:31.622Z,995.95
2018-12-12T00:14:31.540Z,995.91
2018-12-12T00:15:31.457Z,995.93
2018-12-12T00:16:31.376Z,995.93
2018-12-12T00:17:31.295Z,995.92
2018-12-12T00:18:31.212Z,995.92
2018-12-12T00:19:31.137Z,995.94
2018-12-12T00:20:31.044Z,995.92
2018-12-12T00:21:30.961Z,995.94
2018-12-12T00:22:30.883Z,995.90
2018-12-12T00:23:30.799Z,995.91
2018-12-12T00:24:30.717Z,995.93
2018-12-12T00:25:30.631Z,995.95
2018-12-12T00:26:30.551Z,995.94
2018-12-12T00:27:30.468Z,995.95
2018-12-12T00:28:30.384Z,995.93
2018-12-12T00:29:30.302Z,995.92
2018-12-12T00:30:30.220Z,995.89
2018-12-12T00:31:30.138Z,995.87
2018-12-12T00:32:30.055Z,995.87
2018-12-12T00:33:29.973Z,995.89
2018-12-12T00:34:29.892Z,995.85
2018-12-12T00:35:29.808Z,995.87
2018-12-12T00:36:29.725Z,995.84
2018-12-12T00:37:29.643Z,995.81
2018-12-12T00:38:29.561Z,995.84
2018-12-12T00:39:29.478Z,995.85
2018-12-12T00:40:29.395Z,995.83
2018-12-12T00:41:29.312Z,995.80
2018-12-12T00:42:29.231Z,995.83
2018-12-12T00:43:29.147Z,995.79
2018-12-12T00:44:29.065Z,995.78
2018-12-12T00:45:28.982Z,995.76
2018-12-12T00:46:28.901Z,995.71
2018-12-12T00:47:28.817Z,995.78
2018-12-12T00:48:28.786Z,995.75
2018-12-12T00:49:28.653Z,995.81
2018-12-12T00:50:28.569Z,995.77
2018-12-12T00:51:28.487Z,995.80
2018-12-12T00:52:28.406Z,995.83
2018-12-12T00:53:28.324Z,995.84
2018-12-12T00:54:28.239Z,995.76
2018-12-12T00:55:28.157Z,995.77
2018-12-12T00:56:28.074Z,995.78
2018-12-12T00:57:27.994Z,995.74
2018-12-12T00:58:27.909Z,995.76
2018-12-12T00:59:28.076Z,995.81
2018-12-12T01:00:27.743Z,995.78
2018-12-12T01:01:27.661Z,995.76
2018-12-12T01:02:27.579Z,995.82
2018-12-12T01:03:27.499Z,995.81
2018-12-12T01:04:27.413Z,995.78
2018-12-12T01:05:27.330Z,995.88
2018-12-12T01:06:27.248Z,995.85
2018-12-12T01:07:27.166Z,995.88
2018-12-12T01:08:27.086Z,995.89
2018-12-12T01:09:27.000Z,995.91
2018-12-12T01:10:26.919Z,995.89
2018-12-12T01:11:26.835Z,995.89
2018-12-12T01:12:26.751Z,995.89
2018-12-12T01:13:26.672Z,995.86
2018-12-12T01:14:26.592Z,995.86
2018-12-12T01:15:26.504Z,995.86
2018-12-12T01:16:26.421Z,995.88
2018-12-12T01:17:26.340Z,995.87
2018-12-12T01:18:26.257Z,995.87
2018-12-12T01:19:26.175Z,995.88
2018-12-12T01:20:26.091Z,995.89
2018-12-12T01:21:26.010Z,995.90
2018-12-12T01:22:25.926Z,995.94
2018-12-12T01:23:25.843Z,995.93
2018-12-12T01:24:25.763Z,995.92
2018-12-12T01:25:25.678Z,995.87
2018-12-12T01:26:25.597Z,995.89
2018-12-12T01:27:25.513Z,995.94
2018-12-12T01:28:25.429Z,995.94
2018-12-12T01:29:25.347Z,995.93
2018-12-12T01:30:25.314Z,995.95
2018-12-12T01:31:25.182Z,995.95
2018-12-12T01:32:25.099Z,995.91
2018-12-12T01:33:25.016Z,995.89
2018-12-12T01:34:24.934Z,995.89
2018-12-12T01:35:24.851Z,995.89
2018-12-12T01:36:24.771Z,995.92
2018-12-12T01:37:24.686Z,995.90
2018-12-12T01:38:24.603Z,995.91
2018-12-12T01:39:24.522Z,995.94
2018-12-12T01:40:24.438Z,995.90
2018-12-12T01:41:24.606Z,995.95
2018-12-12T01:42:24.271Z,995.94
2018-12-12T01:43:24.190Z,995.95
2018-12-12T01:44:24.109Z,995.99
2018-12-12T01:45:24.026Z,995.98
2018-12-12T01:46:24.043Z,995.95
2018-12-12T01:47:23.861Z,995.93
2018-12-12T01:48:23.776Z,995.92
2018-12-12T01:49:23.694Z,995.90
2018-12-12T01:50:23.612Z,995.95
2018-12-12T01:51:23.529Z,995.91
2018-12-12T01:52:23.447Z,995.94
2018-12-12T01:53:23.366Z,995.89
2018-12-12T01:54:23.281Z,995.87
2018-12-12T01:55:23.198Z,995.85
2018-12-12T01:56:23.115Z,995.85
2018-12-12T01:57:23.035Z,995.86
2018-12-12T01:58:22.951Z,995.83
2018-12-12T01:59:22.869Z,995.84
2018-12-12T02:00:22.785Z,995.82
2018-12-12T02:01:22.705Z,995.82
2018-12-12T02:02:22.620Z,995.81
2018-12-12T02:03:22.538Z,995.83
2018-12-12T02:04:22.455Z,995.84
2018-12-12T02:05:22.373Z,995.85
2018-12-12T02:06:22.297Z,995.83
2018-12-12T02:07:22.309Z,995.86
2018-12-12T02:08:22.125Z,995.86
2018-12-12T02:09:22.042Z,995.86
2018-12-12T02:10:21.958Z,995.84
2018-12-12T02:11:21.877Z,995.90
2018-12-12T02:12:21.796Z,995.85
2018-12-12T02:13:21.711Z,995.88
2018-12-12T02:14:21.628Z,995.88
2018-12-12T02:15:21.545Z,995.91
2018-12-12T02:16:21.462Z,995.93
2018-12-12T02:17:21.481Z,995.93
2018-12-12T02:18:21.298Z,995.91
2018-12-12T02:19:21.215Z,995.92
2018-12-12T02:20:21.131Z,995.92
2018-12-12T02:21:21.049Z,995.94
2018-12-12T02:22:20.966Z,995.94
2018-12-12T02:23:20.885Z,995.94
2018-12-12T02:24:20.802Z,995.92
2018-12-12T02:25:20.718Z,995.96
2018-12-12T02:26:20.635Z,995.96
2018-12-12T02:27:20.553Z,995.97
2018-12-12T02:28:20.470Z,995.98
2018-12-12T02:29:20.387Z,995.98
2018-12-12T02:30:20.307Z,995.98
2018-12-12T02:31:20.228Z,995.96
2018-12-12T02:32:20.388Z,996.00
2018-12-12T02:33:20.060Z,995.98
2018-12-12T02:34:19.973Z,995.99
2018-12-12T02:35:19.891Z,996.02
2018-12-12T02:36:19.810Z,996.01
2018-12-12T02:37:19.724Z,995.98
2018-12-12T02:38:19.641Z,995.95
2018-12-12T02:39:19.560Z,995.94
2018-12-12T02:40:19.476Z,995.94
2018-12-12T02:41:19.393Z,995.90
2018-12-12T02:42:19.567Z,995.91
2018-12-12T02:43:19.228Z,995.94
2018-12-12T02:44:19.146Z,995.95
2018-12-12T02:45:19.063Z,995.92
2018-12-12T02:46:18.980Z,995.91
2018-12-12T02:47:18.998Z,995.88
2018-12-12T02:48:18.813Z,995.88
2018-12-12T02:49:18.730Z,995.87
2018-12-12T02:50:18.648Z,995.84
2018-12-12T02:51:18.565Z,995.87
2018-12-12T02:52:18.489Z,995.83
2018-12-12T02:53:18.414Z,995.84
2018-12-12T02:54:18.317Z,995.85
2018-12-12T02:55:18.235Z,995.85
2018-12-12T02:56:18.151Z,995.85
2018-12-12T02:57:18.069Z,995.85
2018-12-12T02:58:17.984Z,995.85
2018-12-12T02:59:17.903Z,995.82
2018-12-12T03:00:17.821Z,995.85
2018-12-12T03:01:17.738Z,995.85
2018-12-12T03:02:17.653Z,995.86
2018-12-12T03:03:17.672Z,995.88
2018-12-12T03:04:17.489Z,995.87
2018-12-12T03:05:17.405Z,995.91
2018-12-12T03:06:17.325Z,995.90
2018-12-12T03:07:17.241Z,995.92
2018-12-12T03:08:17.215Z,995.90
2018-12-12T03:09:17.078Z,995.92
2018-12-12T03:10:16.992Z,995.91
2018-12-12T03:11:16.911Z,995.90
2018-12-12T03:12:16.827Z,995.88
2018-12-12T03:13:16.845Z,995.91
2018-12-12T03:14:16.661Z,995.91
2018-12-12T03:15:16.578Z,995.95
2018-12-12T03:16:16.496Z,995.89
2018-12-12T03:17:16.413Z,995.92
2018-12-12T03:18:16.335Z,995.91
2018-12-12T03:19:16.248Z,995.86
2018-12-12T03:20:16.165Z,995.87
2018-12-12T03:21:16.085Z,995.85
2018-12-12T03:22:16.000Z,995.86
2018-12-12T03:23:15.916Z,995.89
2018-12-12T03:24:15.833Z,995.93
2018-12-12T03:25:15.750Z,995.93
2018-12-12T03:26:15.668Z,995.92
2018-12-12T03:27:15.585Z,995.92
2018-12-12T03:28:15.503Z,995.91
2018-12-12T03:29:15.419Z,995.92
2018-12-12T03:30:15.338Z,995.89
2018-12-12T03:31:15.255Z,995.90
2018-12-12T03:32:15.173Z,995.91
2018-12-12T03:33:15.089Z,995.87
2018-12-12T03:34:15.006Z,995.88
2018-12-12T03:35:14.975Z,995.85
2018-12-12T03:36:14.842Z,995.84
2018-12-12T03:37:14.759Z,995.83
2018-12-12T03:38:14.676Z,995.82
2018-12-12T03:39:14.592Z,995.81
2018-12-12T03:40:14.560Z,995.81
2018-12-12T03:41:14.428Z,995.78
2018-12-12T03:42:14.344Z,995.79
2018-12-12T03:43:14.264Z,995.77
2018-12-12T03:44:14.180Z,995.80
2018-12-12T03:45:14.099Z,995.80
2018-12-12T03:46:14.015Z,995.80
2018-12-12T03:47:13.932Z,995.84
2018-12-12T03:48:13.849Z,995.81
2018-12-12T03:49:13.768Z,995.79
2018-12-12T03:50:13.687Z,995.85
2018-12-12T03:51:13.602Z,995.85
2018-12-12T03:52:13.520Z,995.92
2018-12-12T03:53:13.437Z,995.87
2018-12-12T03:54:13.355Z,995.89
2018-12-12T03:55:13.272Z,995.93
2018-12-12T03:56:13.256Z,995.88
2018-12-12T03:57:13.107Z,995.95
2018-12-12T03:58:13.023Z,995.95
2018-12-12T03:59:12.942Z,995.95
2018-12-12T04:00:13.108Z,995.98
2018-12-12T04:01:12.775Z,996.02
2018-12-12T04:02:12.695Z,996.03
2018-12-12T04:03:12.612Z,996.06
2018-12-12T04:04:12.529Z,996.05
2018-12-12T04:05:12.446Z,996.03
2018-12-12T04:06:12.363Z,996.06
2018-12-12T04:07:12.280Z,996.03
2018-12-12T04:08:12.198Z,996.01
2018-12-12T04:09:12.123Z,996.02
2018-12-12T04:10:12.032Z,996.06
2018-12-12T04:11:11.954Z,996.02
2018-12-12T04:12:11.868Z,996.03
2018-12-12T04:13:11.786Z,996.04
2018-12-12T04:14:11.701Z,996.04
2018-12-12T04:15:11.618Z,996.07
2018-12-12T04:16:11.534Z,996.05
2018-12-12T04:17:12.177Z,996.07
2018-12-12T04:18:11.371Z,996.07
2018-12-12T04:19:11.288Z,996.06
2018-12-12T04:20:11.204Z,996.07
2018-12-12T04:21:11.123Z,996.09
2018-12-12T04:22:11.043Z,996.08
2018-12-12T04:23:10.961Z,996.08
2018-12-12T04:24:10.874Z,996.07
2018-12-12T04:25:10.790Z,996.10
2018-12-12T04:26:10.707Z,996.08
2018-12-12T04:27:10.625Z,996.07
2018-12-12T04:28:10.541Z,996.06
2018-12-12T04:29:10.458Z,996.09
2018-12-12T04:30:10.376Z,996.10
2018-12-12T04:31:10.295Z,996.11
2018-12-12T04:32:10.207Z,996.10
2018-12-12T04:33:10.128Z,996.13
2018-12-12T04:34:10.044Z,996.12
2018-12-12T04:35:09.963Z,996.17
2018-12-12T04:36:09.878Z,996.15
2018-12-12T04:37:09.795Z,996.18
2018-12-12T04:38:09.717Z,996.15
2018-12-12T04:39:09.631Z,996.14
2018-12-12T04:40:09.552Z,996.10
2018-12-12T04:41:09.464Z,996.13
2018-12-12T04:42:09.632Z,996.11
2018-12-12T04:43:09.309Z,996.11
2018-12-12T04:44:09.215Z,996.13
2018-12-12T04:45:09.133Z,996.13
2018-12-12T04:46:09.051Z,996.15
2018-12-12T04:47:08.969Z,996.14
2018-12-12T04:48:08.884Z,996.12
2018-12-12T04:49:08.802Z,996.13
2018-12-12T04:50:08.717Z,996.14
2018-12-12T04:51:08.638Z,996.15
2018-12-12T04:52:08.554Z,996.11
2018-12-12T04:53:08.472Z,996.11
2018-12-12T04:54:08.389Z,996.10
2018-12-12T04:55:08.306Z,996.12
2018-12-12T04:56:08.223Z,996.14
2018-12-12T04:57:08.142Z,996.08
2018-12-12T04:58:08.058Z,996.10
2018-12-12T04:59:07.977Z,996.11
2018-12-12T05:00:07.893Z,996.15
2018-12-12T05:01:07.811Z,996.17
2018-12-12T05:02:07.730Z,996.11
2018-12-12T05:03:07.646Z,996.12
2018-12-12T05:04:07.566Z,996.11
2018-12-12T05:05:07.480Z,996.12
2018-12-12T05:06:07.397Z,996.11
2018-12-12T05:07:07.319Z,996.14
2018-12-12T05:08:07.232Z,996.15
2018-12-12T05:09:07.149Z,996.13
2018-12-12T05:10:07.069Z,996.13
2018-12-12T05:11:06.985Z,996.17
2018-12-12T05:12:06.902Z,996.15
2018-12-12T05:13:06.822Z,996.15
2018-12-12T05:14:06.737Z,996.15
2018-12-12T05:15:06.656Z,996.18
2018-12-12T05:16:06.572Z,996.13
2018-12-12T05:17:06.488Z,996.11
2018-12-12T05:18:06.406Z,996.09
2018-12-12T05:19:06.323Z,996.09
2018-12-12T05:20:06.241Z,996.08
2018-12-12T05:21:06.157Z,996.09
2018-12-12T05:22:06.075Z,996.09
2018-12-12T05:23:05.992Z,996.14
2018-12-12T05:24:05.910Z,996.11
2018-12-12T05:25:05.826Z,996.12
2018-12-12T05:26:05.747Z,996.10
2018-12-12T05:27:05.663Z,996.08
2018-12-12T05:28:05.578Z,996.05
2018-12-12T05:29:05.504Z,996.08
2018-12-12T05:30:05.464Z,996.07
2018-12-12T05:31:05.332Z,996.09
2018-12-12T05:32:05.255Z,996.06
2018-12-12T05:33:05.166Z,996.08
2018-12-12T05:34:05.086Z,996.07
2018-12-12T05:35:05.002Z,996.09
2018-12-12T05:36:04.917Z,996.13
2018-12-12T05:37:04.837Z,996.11
2018-12-12T05:38:04.754Z,996.11
2018-12-12T05:39:04.669Z,996.10
2018-12-12T05:40:04.586Z,996.09
2018-12-12T05:41:04.503Z,996.08
2018-12-12T05:42:04.422Z,996.09
2018-12-12T05:43:04.340Z,996.11
2018-12-12T05:44:04.254Z,996.10
2018-12-12T05:45:04.172Z,996.12
2018-12-12T05:46:04.090Z,996.15
2018-12-12T05:47:04.007Z,996.12
2018-12-12T05:48:03.922Z,996.12
2018-12-12T05:49:03.841Z,996.11
2018-12-12T05:50:03.758Z,996.15
2018-12-12T05:51:03.676Z,996.14
2018-12-12T05:52:03.592Z,996.15
2018-12-12T05:53:03.510Z,996.14
2018-12-12T05:54:03.426Z,996.11
2018-12-12T05:55:03.343Z,996.11
2018-12-12T05:56:03.259Z,996.15
2018-12-12T05:57:03.179Z,996.16
2018-12-12T05:58:03.094Z,996.15
2018-12-12T05:59:03.011Z,996.18
2018-12-12T06:00:02.934Z,996.19
2018-12-12T06:01:02.845Z,996.20
2018-12-12T06:02:02.762Z,996.19
2018-12-12T06:03:02.681Z,996.21
2018-12-12T06:04:02.595Z,996.25
2018-12-12T06:05:02.521Z,996.24
2018-12-12T06:06:02.480Z,996.24
2018-12-12T06:07:02.353Z,996.28
2018-12-12T06:08:02.263Z,996.26
2018-12-12T06:09:02.180Z,996.30
2018-12-12T06:10:02.102Z,996.30
2018-12-12T06:11:02.016Z,996.29
2018-12-12T06:12:01.931Z,996.32
2018-12-12T06:13:01.848Z,996.32
2018-12-12T06:14:01.764Z,996.30
2018-12-12T06:15:01.699Z,996.35
2018-12-12T06:16:01.599Z,996.30
2018-12-12T06:17:01.515Z,996.35
2018-12-12T06:18:01.434Z,996.30
2018-12-12T06:19:01.350Z,996.30
2018-12-12T06:20:01.265Z,996.34
2018-12-12T06:21:01.184Z,996.34
2018-12-12T06:22:01.100Z,996.32
2018-12-12T06:23:01.020Z,996.37
2018-12-12T06:24:00.934Z,996.37
2018-12-12T06:25:00.850Z,996.38
2018-12-12T06:26:00.768Z,996.36
2018-12-12T06:27:00.685Z,996.39
2018-12-12T06:28:00.601Z,996.38
2018-12-12T06:29:00.518Z,996.36
2018-12-12T06:30:00.435Z,996.36
2018-12-12T06:31:00.355Z,996.34
2018-12-12T06:32:00.270Z,996.37
2018-12-12T06:33:00.184Z,996.38
2018-12-12T06:34:00.103Z,996.36
2018-12-12T06:35:00.021Z,996.40
2018-12-12T06:35:59.936Z,996.36
2018-12-12T06:36:59.904Z,996.38
2018-12-12T06:37:59.774Z,996.40
2018-12-12T06:38:59.689Z,996.38
2018-12-12T06:39:59.605Z,996.41
2018-12-12T06:40:59.521Z,996.42
2018-12-12T06:41:59.489Z,996.41
2018-12-12T06:42:59.358Z,996.44
2018-12-12T06:43:59.272Z,996.42
2018-12-12T06:44:59.190Z,996.46
2018-12-12T06:45:59.107Z,996.39
2018-12-12T06:46:59.024Z,996.39
2018-12-12T06:47:58.940Z,996.42
2018-12-12T06:48:58.857Z,996.43
2018-12-12T06:49:58.776Z,996.46
2018-12-12T06:50:58.692Z,996.41
2018-12-12T06:51:58.607Z,996.43
2018-12-12T06:52:58.526Z,996.42
2018-12-12T06:53:58.442Z,996.40
2018-12-12T06:54:58.359Z,996.42
2018-12-12T06:55:58.319Z,996.41
2018-12-12T06:56:58.194Z,996.41
2018-12-12T06:57:58.111Z,996.38
2018-12-12T06:58:58.028Z,996.39
2018-12-12T06:59:57.944Z,996.36
2018-12-12T07:00:57.862Z,996.35
2018-12-12T07:01:57.780Z,996.37
2018-12-12T07:02:57.696Z,996.35
2018-12-12T07:03:57.612Z,996.35
2018-12-12T07:04:57.529Z,996.33
2018-12-12T07:05:57.448Z,996.34
2018-12-12T07:06:57.365Z,996.37
2018-12-12T07:07:57.280Z,996.35
2018-12-12T07:08:57.197Z,996.37
2018-12-12T07:09:57.114Z,996.40
2018-12-12T07:10:57.032Z,996.36
2018-12-12T07:11:56.949Z,996.39
2018-12-12T07:12:56.866Z,996.42
2018-12-12T07:13:56.783Z,996.37
2018-12-12T07:14:56.700Z,996.42
2018-12-12T07:15:56.617Z,996.41
2018-12-12T07:16:56.533Z,996.39
2018-12-12T07:17:56.503Z,996.41
2018-12-12T07:18:56.368Z,996.40
2018-12-12T07:19:56.285Z,996.41
2018-12-12T07:20:56.201Z,996.43
2018-12-12T07:21:56.118Z,996.42
2018-12-12T07:22:56.037Z,996.46
2018-12-12T07:23:55.952Z,996.44
2018-12-12T07:24:55.870Z,996.43
2018-12-12T07:25:55.791Z,996.47
2018-12-12T07:26:55.710Z,996.43
2018-12-12T07:27:55.620Z,996.44
2018-12-12T07:28:55.539Z,996.43
2018-12-12T07:29:55.455Z,996.47
2018-12-12T07:30:55.372Z,996.49
2018-12-12T07:31:55.288Z,996.48
2018-12-12T07:32:55.206Z,996.52
2018-12-12T07:34:00.681Z,996.55
2018-12-12T07:34:55.041Z,996.52
2018-12-12T07:35:59.419Z,996.53
2018-12-12T07:36:54.875Z,996.54
2018-12-12T07:37:54.792Z,996.57
2018-12-12T07:38:54.710Z,996.57
2018-12-12T07:39:54.627Z,996.60
2018-12-12T07:40:54.545Z,996.62
2018-12-12T07:41:54.464Z,996.54
2018-12-12T07:42:54.378Z,996.59
2018-12-12T07:43:54.299Z,996.55
2018-12-12T07:44:54.213Z,996.54
2018-12-12T07:45:54.134Z,996.56
2018-12-12T07:46:54.048Z,996.57
2018-12-12T07:47:53.964Z,996.58
2018-12-12T07:48:53.882Z,996.58
2018-12-12T07:49:53.799Z,996.62
2018-12-12T07:50:53.722Z,996.61
2018-12-12T07:51:53.634Z,996.59
2018-12-12T07:52:53.552Z,996.61
2018-12-12T07:53:53.470Z,996.60
2018-12-12T07:54:53.387Z,996.59
2018-12-12T07:55:53.304Z,996.56
2018-12-12T07:56:53.222Z,996.54
2018-12-12T07:57:53.139Z,996.55
2018-12-12T07:58:53.058Z,996.50
2018-12-12T07:59:52.978Z,996.53
2018-12-12T08:00:52.894Z,996.56
2018-12-12T08:01:52.810Z,996.53
2018-12-12T08:02:52.730Z,996.58
2018-12-12T08:03:52.644Z,996.55
2018-12-12T08:04:52.563Z,996.54
2018-12-12T08:05:52.582Z,996.59
2018-12-12T08:06:52.396Z,996.57
2018-12-12T08:07:52.313Z,996.53
2018-12-12T08:08:52.230Z,996.52
2018-12-12T08:09:52.148Z,996.50
2018-12-12T08:10:52.065Z,996.50
2018-12-12T08:11:51.982Z,996.50
2018-12-12T08:12:51.901Z,996.51
2018-12-12T08:13:51.818Z,996.53
2018-12-12T08:14:51.736Z,996.52
2018-12-12T08:15:51.652Z,996.54
2018-12-12T08:16:51.571Z,996.55
2018-12-12T08:17:51.489Z,996.61
2018-12-12T08:18:51.405Z,996.63
2018-12-12T08:19:51.323Z,996.63
2018-12-12T08:20:51.240Z,996.65
2018-12-12T08:21:51.158Z,996.65
2018-12-12T08:22:51.076Z,996.66
2018-12-12T08:23:50.993Z,996.68
2018-12-12T08:24:50.912Z,996.68
2018-12-12T08:25:50.931Z,996.66
2018-12-12T08:26:50.747Z,996.66
2018-12-12T08:27:50.665Z,996.69
2018-12-12T08:28:50.581Z,996.71
2018-12-12T08:29:50.498Z,996.68
2018-12-12T08:30:50.417Z,996.67
2018-12-12T08:31:50.334Z,996.70
2018-12-12T08:32:50.250Z,996.70
2018-12-12T08:33:50.174Z,996.72
2018-12-12T08:34:50.087Z,996.69
2018-12-12T08:35:50.004Z,996.74
2018-12-12T08:36:49.921Z,996.74
2018-12-12T08:37:49.838Z,996.76
2018-12-12T08:38:49.759Z,996.79
2018-12-12T08:39:49.673Z,996.76
2018-12-12T08:40:49.592Z,996.76
2018-12-12T08:41:49.510Z,996.69
2018-12-12T08:42:49.427Z,996.74
2018-12-12T08:43:49.345Z,996.71
2018-12-12T08:44:49.263Z,996.75
2018-12-12T08:45:49.181Z,996.72
2018-12-12T08:46:49.099Z,996.74
2018-12-12T08:47:49.015Z,996.77
2018-12-12T08:48:48.933Z,996.78
2018-12-12T08:49:48.851Z,996.78
2018-12-12T08:50:48.868Z,996.78
2018-12-12T08:51:48.685Z,996.80
2018-12-12T08:52:48.604Z,996.82
2018-12-12T08:53:48.522Z,996.81
2018-12-12T08:54:48.441Z,996.85
2018-12-12T08:55:48.359Z,996.80
2018-12-12T08:56:48.276Z,996.84
2018-12-12T08:57:48.194Z,996.86
2018-12-12T08:58:48.112Z,996.81
2018-12-12T08:59:48.033Z,996.83
2018-12-12T09:00:47.947Z,996.86
2018-12-12T09:01:47.866Z,996.88
2018-12-12T09:02:47.785Z,996.86
2018-12-12T09:03:47.702Z,996.93
2018-12-12T09:04:47.619Z,996.90
2018-12-12T09:05:47.538Z,996.92
2018-12-12T09:06:47.457Z,996.88
2018-12-12T09:07:47.372Z,996.93
2018-12-12T09:08:47.291Z,996.89
2018-12-12T09:09:47.209Z,996.85
2018-12-12T09:10:47.131Z,996.85
2018-12-12T09:11:47.046Z,996.86
2018-12-12T09:12:46.963Z,996.86
2018-12-12T09:13:46.882Z,996.87
2018-12-12T09:14:46.799Z,996.85
2018-12-12T09:15:46.716Z,996.86
2018-12-12T09:16:46.637Z,996.85
2018-12-12T09:17:46.553Z,996.89
2018-12-12T09:18:46.472Z,996.87
2018-12-12T09:19:46.388Z,996.88
2018-12-12T09:20:46.307Z,996.89
2018-12-12T09:21:46.227Z,996.90
2018-12-12T09:22:46.143Z,996.86
2018-12-12T09:23:46.062Z,996.89
2018-12-12T09:24:45.980Z,996.86
2018-12-12T09:25:45.999Z,996.88
2018-12-12T09:26:45.817Z,996.86
2018-12-12T09:27:46.397Z,996.88
2018-12-12T09:28:45.653Z,996.89
2018-12-12T09:29:45.570Z,996.90
2018-12-12T09:30:45.489Z,996.89
2018-12-12T09:31:45.408Z,996.91
2018-12-12T09:32:45.325Z,996.91
2018-12-12T09:33:45.242Z,996.92
2018-12-12T09:34:45.162Z,996.92
2018-12-12T09:35:45.080Z,996.92
2018-12-12T09:36:44.998Z,996.91
2018-12-12T09:37:44.920Z,996.92
2018-12-12T09:38:44.835Z,996.91
2018-12-12T09:39:44.753Z,996.84
2018-12-12T09:40:44.672Z,996.87
2018-12-12T09:41:44.590Z,996.87
2018-12-12T09:42:44.509Z,996.89
2018-12-12T09:43:44.427Z,996.90
2018-12-12T09:44:44.347Z,996.91
2018-12-12T09:45:44.265Z,996.89
2018-12-12T09:46:44.183Z,996.88
2018-12-12T09:47:44.101Z,996.86
2018-12-12T09:48:44.020Z,996.87
2018-12-12T09:49:43.940Z,996.87
2018-12-12T09:50:43.857Z,996.89
2018-12-12T09:51:43.777Z,996.86
2018-12-12T09:52:43.693Z,996.88
2018-12-12T09:53:43.612Z,996.89
2018-12-12T09:54:43.531Z,996.86
2018-12-12T09:55:43.449Z,996.87
2018-12-12T09:56:43.369Z,996.84
2018-12-12T09:57:43.286Z,996.87
2018-12-12T09:58:43.206Z,996.89
2018-12-12T09:59:43.122Z,996.85
2018-12-12T10:00:43.091Z,996.84
2018-12-12T10:01:42.960Z,996.89
2018-12-12T10:02:42.880Z,996.87
2018-12-12T10:03:42.795Z,996.84
2018-12-12T10:04:42.718Z,996.84
2018-12-12T10:05:42.637Z,996.84
2018-12-12T10:06:42.552Z,996.85
2018-12-12T10:07:42.470Z,996.83
2018-12-12T10:08:42.389Z,996.87
2018-12-12T10:09:42.309Z,996.90
2018-12-12T10:10:42.329Z,996.89
2018-12-12T10:11:42.143Z,996.89
2018-12-12T10:12:42.065Z,996.89
2018-12-12T10:13:41.984Z,996.90
2018-12-12T10:14:41.902Z,996.89
2018-12-12T10:15:41.819Z,996.87
2018-12-12T10:16:41.739Z,996.92
2018-12-12T10:17:41.660Z,996.89
2018-12-12T10:18:41.578Z,996.91
2018-12-12T10:19:41.496Z,996.91
2018-12-12T10:20:41.412Z,996.89
2018-12-12T10:21:41.332Z,996.88
2018-12-12T10:22:41.251Z,996.88
2018-12-12T10:23:41.169Z,996.88
2018-12-12T10:24:41.089Z,996.87
2018-12-12T10:25:41.007Z,996.83
2018-12-12T10:26:40.926Z,996.84
2018-12-12T10:27:40.846Z,996.85
2018-12-12T10:28:40.764Z,996.86
2018-12-12T10:29:40.682Z,996.86
2018-12-12T10:30:40.602Z,996.83
2018-12-12T10:31:40.518Z,996.84
2018-12-12T10:32:40.440Z,996.83
2018-12-12T10:33:40.357Z,996.83
2018-12-12T10:34:40.275Z,996.83
2018-12-12T10:35:40.193Z,996.78
2018-12-12T10:36:40.114Z,996.80
2018-12-12T10:37:40.031Z,996.78
2018-12-12T10:38:40.019Z,996.79
2018-12-12T10:39:39.869Z,996.76
2018-12-12T10:40:39.787Z,996.73
2018-12-12T10:41:39.705Z,996.76
2018-12-12T10:42:39.623Z,996.78
2018-12-12T10:43:39.543Z,996.72
2018-12-12T10:44:39.464Z,996.72
2018-12-12T10:45:39.380Z,996.73
2018-12-12T10:46:39.300Z,996.73
2018-12-12T10:47:39.217Z,996.70
2018-12-12T10:48:39.137Z,996.74
2018-12-12T10:49:39.056Z,996.72
2018-12-12T10:50:38.974Z,996.72
2018-12-12T10:51:38.891Z,996.68
2018-12-12T10:52:38.811Z,996.73
2018-12-12T10:53:38.730Z,996.65
2018-12-12T10:54:38.648Z,996.70
2018-12-12T10:55:38.566Z,996.66
2018-12-12T10:56:38.485Z,996.69
2018-12-12T10:57:38.404Z,996.71
2018-12-12T10:58:38.409Z,996.68
2018-12-12T10:59:38.241Z,996.67
2018-12-12T11:00:38.161Z,996.68
2018-12-12T11:01:38.178Z,996.66
2018-12-12T11:02:37.998Z,996.63
2018-12-12T11:03:43.961Z,996.67
2018-12-12T11:04:37.835Z,996.63
2018-12-12T11:05:37.754Z,996.64
2018-12-12T11:06:37.774Z,996.63
2018-12-12T11:07:37.591Z,996.58
2018-12-12T11:08:37.509Z,996.56
2018-12-12T11:09:37.428Z,996.49
2018-12-12T11:10:37.349Z,996.53
2018-12-12T11:11:37.266Z,996.51
2018-12-12T11:12:37.186Z,996.53
2018-12-12T11:13:37.103Z,996.50
2018-12-12T11:14:37.022Z,996.53
2018-12-12T11:15:36.942Z,996.49
2018-12-12T11:16:36.908Z,996.48
2018-12-12T11:17:36.779Z,996.49
2018-12-12T11:18:36.696Z,996.48
2018-12-12T11:19:36.614Z,996.45
2018-12-12T11:20:36.541Z,996.44
2018-12-12T11:21:36.451Z,996.45
2018-12-12T11:22:36.370Z,996.44
2018-12-12T11:23:36.289Z,996.42
2018-12-12T11:24:36.209Z,996.40
2018-12-12T11:25:36.127Z,996.45
2018-12-12T11:26:36.047Z,996.41
2018-12-12T11:27:35.965Z,996.37
2018-12-12T11:28:35.884Z,996.35
2018-12-12T11:29:35.806Z,996.38
2018-12-12T11:30:35.723Z,996.42
2018-12-12T11:31:35.641Z,996.36
2018-12-12T11:32:35.560Z,996.38
2018-12-12T11:33:35.479Z,996.35
2018-12-12T11:34:35.398Z,996.38
2018-12-12T11:35:35.316Z,996.33
2018-12-12T11:36:35.235Z,996.34
2018-12-12T11:37:35.156Z,996.32
2018-12-12T11:38:35.075Z,996.32
2018-12-12T11:39:34.992Z,996.29
2018-12-12T11:40:34.912Z,996.32
2018-12-12T11:41:34.831Z,996.30
2018-12-12T11:42:34.750Z,996.29
2018-12-12T11:43:34.668Z,996.25
2018-12-12T11:44:34.591Z,996.25
2018-12-12T11:45:34.508Z,996.22
2018-12-12T11:46:34.478Z,996.22
2018-12-12T11:47:34.393Z,996.24
2018-12-12T11:48:34.262Z,996.26
2018-12-12T11:49:34.181Z,996.25
2018-12-12T11:50:34.101Z,996.23
2018-12-12T11:51:34.019Z,996.26
2018-12-12T11:52:33.939Z,996.25
2018-12-12T11:53:33.856Z,996.25
2018-12-12T11:54:33.799Z,996.21
2018-12-12T11:55:33.695Z,996.18
2018-12-12T11:56:33.615Z,996.20
2018-12-12T11:57:33.534Z,996.18
2018-12-12T11:58:33.453Z,996.18
2018-12-12T11:59:33.370Z,996.14
2018-12-12T12:00:33.292Z,996.14
2018-12-12T12:01:33.210Z,996.11
2018-12-12T12:02:35.759Z,996.10
2018-12-12T12:03:33.047Z,996.07
2018-12-12T12:04:32.970Z,996.04
2018-12-12T12:05:32.885Z,996.06
2018-12-12T12:06:32.806Z,996.09
2018-12-12T12:07:32.724Z,996.10
2018-12-12T12:08:32.646Z,996.09
2018-12-12T12:09:32.562Z,996.08
2018-12-12T12:10:32.481Z,996.07
2018-12-12T12:11:32.399Z,996.04
2018-12-12T12:12:32.471Z,996.06
2018-12-12T12:13:32.238Z,996.05
2018-12-12T12:14:32.158Z,996.02
2018-12-12T12:15:32.076Z,996.04
2018-12-12T12:16:31.998Z,996.02
2018-12-12T12:17:31.919Z,996.02
2018-12-12T12:18:31.834Z,996.01
2018-12-12T12:19:31.753Z,995.99
2018-12-12T12:20:31.675Z,995.96
2018-12-12T12:21:31.592Z,996.01
2018-12-12T12:22:31.511Z,996.01
2018-12-12T12:23:31.429Z,995.99
2018-12-12T12:24:31.349Z,996.03
2018-12-12T12:25:31.268Z,996.00
2018-12-12T12:26:31.188Z,995.95
2018-12-12T12:27:31.106Z,995.95